Time;durP1;ratioP1;P1;durP2;ratioP2;P2;SDS_P1;SDS_P2;PMS_P1;PMS_P2;Temp;Humidity;BMP_temperature;BMP_pressure;BME280_temperature;BME280_humidity;BME280_pressure;Samples;Min_cycle;Max_cycle;Signal;HPM_P1;HPM_P2
2021/07/25 00:01:26;;;;;;;;;;;14.60;69.60;;;;;;4978980;28;95268;-41
2021/07/25 00:03:58;;;;;;;;;;;14.70;69.60;;;;;;4980818;28;95234;-42
2021/07/25 00:06:32;;;;;;;;;;;14.70;69.60;;;;;;4980941;28;96398;-42
2021/07/25 00:09:02;;;;;;;;;;;14.60;69.60;;;;;;4980443;28;95785;-42
2021/07/25 00:11:34;;;;;;;;;;;14.60;69.70;;;;;;4980445;28;95003;-41
2021/07/25 00:14:06;;;;;;;;;;;14.50;69.10;;;;;;4980349;28;95190;-42
2021/07/25 00:16:38;;;;;;;;;;;14.60;67.00;;;;;;4959963;28;96514;-42
2021/07/25 00:19:12;;;;;;;;;;;14.60;65.80;;;;;;4980042;28;95736;-42
2021/07/25 00:21:43;;;;;;;;;;;14.60;65.70;;;;;;4980429;28;94937;-42
2021/07/25 00:24:22;;;;;;;;;;;14.60;65.40;;;;;;4980740;28;95158;-42
2021/07/25 00:26:56;;;;;;;;;;;14.60;65.90;;;;;;4979960;28;96347;-42
2021/07/25 00:29:31;;;;;;;;;;;14.60;66.60;;;;;;4979531;28;95215;-41
2021/07/25 00:32:12;;;;;;;;;;;14.60;67.30;;;;;;4976948;28;95103;-41
2021/07/25 00:34:45;;;;;;;;;;;14.60;68.50;;;;;;4980436;28;95095;-42
2021/07/25 00:37:17;;;;;;;;;;;14.70;69.40;;;;;;4979891;28;95496;-42
2021/07/25 00:39:48;;;;;;;;;;;14.70;69.40;;;;;;4979697;28;95443;-41
2021/07/25 00:42:19;;;;;;;;;;;14.80;69.90;;;;;;4979874;28;94957;-42
2021/07/25 00:44:52;;;;;;;;;;;14.80;69.30;;;;;;4980382;28;95225;-42
2021/07/25 00:47:25;;;;;;;;;;;14.80;69.40;;;;;;4977425;28;96062;-42
2021/07/25 00:49:57;;;;;;;;;;;14.70;69.50;;;;;;4980123;28;95289;-41
2021/07/25 00:52:33;;;;;;;;;;;14.70;69.70;;;;;;4980333;28;95003;-40
2021/07/25 00:55:07;;;;;;;;;;;14.60;69.90;;;;;;4980043;28;95226;-41
2021/07/25 00:57:39;;;;;;;;;;;14.60;70.10;;;;;;4980651;28;94908;-41
2021/07/25 01:00:13;;;;;;;;;;;14.60;70.10;;;;;;4980121;28;95263;-41
2021/07/25 01:03:05;;;;;;;;;;;14.50;70.10;;;;;;5026120;22;95515;-40
2021/07/25 01:05:50;;;;;;;;;;;14.50;70.10;;;;;;4980452;28;95157;-40
2021/07/25 01:08:28;;;;;;;;;;;14.60;72.30;;;;;;4982059;28;96122;-40
2021/07/25 01:11:00;;;;;;;;;;;14.70;72.60;;;;;;4999129;28;95253;-41
2021/07/25 01:13:33;;;;;;;;;;;14.80;71.50;;;;;;4999359;28;95053;-41
2021/07/25 01:16:05;;;;;;;;;;;14.80;71.30;;;;;;4998279;28;95460;-40
2021/07/25 01:18:47;;;;;;;;;;;14.70;71.30;;;;;;4997945;28;96007;-40
2021/07/25 01:21:18;;;;;;;;;;;14.70;71.20;;;;;;4998890;28;95955;-41
2021/07/25 01:23:49;;;;;;;;;;;14.70;71.20;;;;;;4999223;28;94946;-39
2021/07/25 01:26:21;;;;;;;;;;;14.60;71.10;;;;;;4982355;28;95196;-40
2021/07/25 01:28:53;;;;;;;;;;;14.60;71.10;;;;;;4998997;28;95853;-41
2021/07/25 01:31:29;;;;;;;;;;;14.60;71.20;;;;;;4980302;28;95418;-42
2021/07/25 01:34:02;;;;;;;;;;;14.60;71.10;;;;;;4999204;28;94913;-41
2021/07/25 01:36:33;;;;;;;;;;;14.50;71.20;;;;;;4999681;28;95182;-41
2021/07/25 01:39:04;;;;;;;;;;;14.50;71.20;;;;;;4985159;28;96079;-41
2021/07/25 01:41:43;;;;;;;;;;;14.60;71.20;;;;;;5002361;28;95220;-42
2021/07/25 01:44:15;;;;;;;;;;;14.60;71.50;;;;;;5002572;28;94950;-41
2021/07/25 01:46:47;;;;;;;;;;;14.50;71.60;;;;;;5000847;28;95163;-42
2021/07/25 01:49:18;;;;;;;;;;;14.50;71.80;;;;;;5001479;28;95846;-41
2021/07/25 01:51:50;;;;;;;;;;;14.50;71.90;;;;;;5002932;28;95793;-41
2021/07/25 01:54:23;;;;;;;;;;;14.40;72.00;;;;;;5003082;28;95016;-41
2021/07/25 01:56:54;;;;;;;;;;;14.50;72.10;;;;;;5003722;28;95143;-41
2021/07/25 01:59:27;;;;;;;;;;;14.50;71.80;;;;;;5002797;28;95816;-41
2021/07/25 02:02:00;;;;;;;;;;;14.50;71.80;;;;;;5000638;28;95926;-40
2021/07/25 02:04:32;;;;;;;;;;;14.50;70.50;;;;;;5002636;28;94989;-41
2021/07/25 02:07:07;;;;;;;;;;;14.50;69.40;;;;;;5003281;28;95100;-41
2021/07/25 02:09:38;;;;;;;;;;;14.50;69.80;;;;;;5001839;28;95778;-41
2021/07/25 02:12:11;;;;;;;;;;;14.50;69.80;;;;;;5001348;28;95452;-40
2021/07/25 02:14:43;;;;;;;;;;;14.50;69.60;;;;;;4984788;28;95022;-41
2021/07/25 02:17:16;;;;;;;;;;;14.40;70.50;;;;;;4983540;28;95538;-39
2021/07/25 02:19:47;;;;;;;;;;;14.40;71.00;;;;;;5001886;28;95802;-39
2021/07/25 02:22:18;;;;;;;;;;;14.50;71.20;;;;;;5001780;28;95403;-38
2021/07/25 02:24:50;;;;;;;;;;;14.60;71.30;;;;;;5001896;28;94917;-39
2021/07/25 02:27:23;;;;;;;;;;;14.60;70.90;;;;;;5002248;28;95154;-47
2021/07/25 02:29:54;;;;;;;;;;;14.70;70.60;;;;;;5002169;28;95793;-40
2021/07/25 02:32:27;;;;;;;;;;;14.70;71.50;;;;;;5000829;28;95378;-40
2021/07/25 02:34:57;;;;;;;;;;;14.80;71.20;;;;;;5002175;28;94997;-39
2021/07/25 02:37:29;;;;;;;;;;;14.90;71.20;;;;;;5001979;28;95332;-46
2021/07/25 02:40:00;;;;;;;;;;;15.00;70.90;;;;;;5001453;28;95791;-46
2021/07/25 02:42:32;;;;;;;;;;;15.20;70.70;;;;;;5000936;28;95518;-46
2021/07/25 02:45:03;;;;;;;;;;;15.30;70.70;;;;;;5001227;28;94964;-41
2021/07/25 02:47:35;;;;;;;;;;;15.50;70.30;;;;;;4999344;28;95306;-40
2021/07/25 02:50:06;;;;;;;;;;;15.60;69.20;;;;;;4998832;28;95916;-40
2021/07/25 02:52:36;;;;;;;;;;;15.70;68.80;;;;;;5001794;28;95450;-40
2021/07/25 02:55:09;;;;;;;;;;;15.90;69.00;;;;;;5002146;28;95007;-39
2021/07/25 02:57:42;;;;;;;;;;;16.00;68.90;;;;;;5003389;28;95177;-38
2021/07/25 03:00:15;;;;;;;;;;;16.10;68.70;;;;;;5001361;28;96067;-38
2021/07/25 03:02:46;;;;;;;;;;;16.30;68.60;;;;;;4999427;28;95472;-38
2021/07/25 03:05:18;;;;;;;;;;;16.40;68.00;;;;;;5001915;28;94969;-38
2021/07/25 03:07:49;;;;;;;;;;;16.50;66.60;;;;;;5001864;28;95233;-37
2021/07/25 03:10:20;;;;;;;;;;;16.60;66.60;;;;;;5000616;28;96325;-38
2021/07/25 03:12:51;;;;;;;;;;;16.60;66.90;;;;;;5001154;28;95363;-40
2021/07/25 03:15:23;;;;;;;;;;;16.70;66.70;;;;;;4995595;28;95265;-39
2021/07/25 03:17:54;;;;;;;;;;;16.80;66.80;;;;;;5001643;28;95169;-37
2021/07/25 03:20:29;;;;;;;;;;;16.80;65.80;;;;;;5000902;28;96072;-39
2021/07/25 03:22:59;;;;;;;;;;;16.80;66.10;;;;;;5000738;28;95223;-39
2021/07/25 03:25:31;;;;;;;;;;;16.70;66.40;;;;;;4982616;28;95087;-37
2021/07/25 03:28:01;;;;;;;;;;;16.70;66.60;;;;;;4982845;28;95348;-36
2021/07/25 03:30:32;;;;;;;;;;;16.70;66.60;;;;;;4999200;28;95825;-37
2021/07/25 03:33:04;;;;;;;;;;;16.70;66.80;;;;;;5000771;28;95274;-40
2021/07/25 03:35:35;;;;;;;;;;;16.70;67.00;;;;;;5000972;28;94933;-38
2021/07/25 03:38:06;;;;;;;;;;;16.70;67.00;;;;;;4999228;28;95373;-39
2021/07/25 03:40:37;;;;;;;;;;;16.70;67.00;;;;;;5000544;28;96350;-39
2021/07/25 03:43:09;;;;;;;;;;;16.70;66.90;;;;;;4982092;28;94999;-40
2021/07/25 03:45:42;;;;;;;;;;;16.70;67.60;;;;;;4999232;28;95106;-49
2021/07/25 03:48:17;;;;;;;;;;;16.70;67.10;;;;;;5000346;28;95336;-40
2021/07/25 03:50:47;;;;;;;;;;;16.70;67.00;;;;;;4983026;28;98356;-39
2021/07/25 03:53:18;;;;;;;;;;;16.70;67.00;;;;;;5001115;28;95526;-40
2021/07/25 03:55:51;;;;;;;;;;;16.80;67.10;;;;;;5001470;28;94985;-47
2021/07/25 03:58:24;;;;;;;;;;;16.80;66.90;;;;;;5001820;28;95007;-48
2021/07/25 04:00:55;;;;;;;;;;;16.80;67.20;;;;;;4997825;28;95447;-48
2021/07/25 04:03:27;;;;;;;;;;;16.80;66.50;;;;;;4999769;28;95328;-39
2021/07/25 04:05:57;;;;;;;;;;;16.80;65.40;;;;;;5000807;28;94992;-41
2021/07/25 04:08:27;;;;;;;;;;;16.70;66.20;;;;;;5000231;28;95371;-42
2021/07/25 04:10:59;;;;;;;;;;;16.80;66.60;;;;;;5000299;28;96356;-44
2021/07/25 04:13:31;;;;;;;;;;;16.80;66.40;;;;;;5000080;28;95751;-40
2021/07/25 04:16:03;;;;;;;;;;;16.80;66.20;;;;;;4999413;28;94959;-38
2021/07/25 04:18:36;;;;;;;;;;;16.80;66.50;;;;;;4982335;28;95537;-40
2021/07/25 04:21:07;;;;;;;;;;;16.80;66.40;;;;;;4999920;28;96070;-48
2021/07/25 04:23:39;;;;;;;;;;;16.80;66.20;;;;;;4999662;28;95798;-47
2021/07/25 04:26:15;;;;;;;;;;;16.80;66.20;;;;;;4981882;28;95014;-47
2021/07/25 04:28:49;;;;;;;;;;;16.80;66.30;;;;;;4982245;28;95513;-47
2021/07/25 04:31:25;;;;;;;;;;;16.70;66.20;;;;;;4980547;28;96867;-47
2021/07/25 04:33:59;;;;;;;;;;;16.70;66.30;;;;;;4998424;28;95422;-48
2021/07/25 04:36:34;;;;;;;;;;;16.70;66.40;;;;;;4983362;28;94947;-47
2021/07/25 04:39:09;;;;;;;;;;;16.70;66.40;;;;;;4999146;28;95263;-47
2021/07/25 04:41:43;;;;;;;;;;;16.70;66.30;;;;;;4999826;28;95040;-48
2021/07/25 04:44:24;;;;;;;;;;;16.60;66.60;;;;;;4999506;28;94920;-48
2021/07/25 04:46:59;;;;;;;;;;;16.40;66.00;;;;;;4998283;28;95178;-48
2021/07/25 04:49:37;;;;;;;;;;;16.20;66.30;;;;;;4998459;28;95225;-48
2021/07/25 04:52:11;;;;;;;;;;;16.20;66.70;;;;;;5000340;28;95582;-48
2021/07/25 04:54:49;;;;;;;;;;;16.10;66.90;;;;;;4999745;28;95897;-47
2021/07/25 04:57:25;;;;;;;;;;;16.00;66.90;;;;;;5000610;28;94929;-48
2021/07/25 04:59:57;;;;;;;;;;;16.00;66.40;;;;;;5000259;28;95277;-48
2021/07/25 05:02:31;;;;;;;;;;;16.10;66.50;;;;;;4997619;28;96522;-48
2021/07/25 05:05:08;;;;;;;;;;;16.10;66.30;;;;;;4981328;28;97473;-48
2021/07/25 05:07:41;;;;;;;;;;;16.20;66.60;;;;;;4999812;28;95028;-48
2021/07/25 05:10:11;;;;;;;;;;;16.20;66.50;;;;;;4999714;28;95190;-48
2021/07/25 05:12:50;;;;;;;;;;;16.20;66.70;;;;;;4981289;28;95795;-47
2021/07/25 05:15:27;;;;;;;;;;;16.20;66.90;;;;;;4998141;28;96164;-48
2021/07/25 05:18:08;;;;;;;;;;;16.20;67.00;;;;;;4999353;28;95123;-47
2021/07/25 05:20:43;;;;;;;;;;;16.20;67.30;;;;;;4999849;28;95008;-46
2021/07/25 05:23:13;;;;;;;;;;;16.20;67.50;;;;;;4998850;28;95810;-46
2021/07/25 05:25:51;;;;;;;;;;;16.20;67.60;;;;;;4997378;28;94966;-48
2021/07/25 05:28:22;;;;;;;;;;;16.20;67.70;;;;;;4999431;28;94978;-38
2021/07/25 05:30:56;;;;;;;;;;;16.20;67.80;;;;;;4998716;28;95194;-38
2021/07/25 05:33:28;;;;;;;;;;;16.20;67.80;;;;;;4980688;28;98369;-38
2021/07/25 05:35:59;;;;;;;;;;;16.20;67.90;;;;;;4998662;28;95253;-39
2021/07/25 05:38:30;;;;;;;;;;;16.20;68.10;;;;;;4997959;28;94943;-40
2021/07/25 05:41:01;;;;;;;;;;;16.20;68.50;;;;;;4999576;28;95137;-39
2021/07/25 05:43:33;;;;;;;;;;;16.20;68.60;;;;;;4996933;28;96503;-39
2021/07/25 05:46:05;;;;;;;;;;;16.30;69.40;;;;;;4996422;28;95501;-39
2021/07/25 05:48:37;;;;;;;;;;;16.30;69.80;;;;;;4995819;28;96689;-40
2021/07/25 05:51:08;;;;;;;;;;;16.40;70.10;;;;;;5000459;28;95158;-40
2021/07/25 05:53:42;;;;;;;;;;;16.40;69.90;;;;;;4999556;28;95759;-40
2021/07/25 05:56:14;;;;;;;;;;;16.40;69.90;;;;;;4999332;28;95281;-40
2021/07/25 05:58:51;;;;;;;;;;;16.40;69.90;;;;;;4999083;28;94974;-39
2021/07/25 06:01:24;;;;;;;;;;;16.50;69.90;;;;;;4997694;28;95206;-40
2021/07/25 06:03:55;;;;;;;;;;;16.50;69.30;;;;;;4998616;28;95801;-40
2021/07/25 06:06:25;;;;;;;;;;;16.50;69.20;;;;;;4999240;28;95329;-40
2021/07/25 06:08:57;;;;;;;;;;;16.50;69.20;;;;;;4998411;28;95164;-39
2021/07/25 06:11:27;;;;;;;;;;;16.40;69.20;;;;;;4998866;28;95475;-40
2021/07/25 06:14:00;;;;;;;;;;;16.40;69.30;;;;;;4998494;28;96403;-40
2021/07/25 06:16:33;;;;;;;;;;;16.40;69.40;;;;;;4996526;28;95420;-40
2021/07/25 06:19:07;;;;;;;;;;;16.40;69.40;;;;;;4998949;28;95112;-40
2021/07/25 06:21:37;;;;;;;;;;;16.30;69.40;;;;;;4999036;28;95234;-40
2021/07/25 06:24:09;;;;;;;;;;;16.30;69.60;;;;;;5000202;28;96119;-39
2021/07/25 06:26:43;;;;;;;;;;;16.30;69.90;;;;;;5000943;28;95759;-40
2021/07/25 06:29:14;;;;;;;;;;;16.30;69.80;;;;;;5001818;28;95108;-40
2021/07/25 06:31:46;;;;;;;;;;;16.30;69.90;;;;;;5000667;28;95052;-39
2021/07/25 06:34:17;;;;;;;;;;;16.30;69.90;;;;;;5001284;28;96024;-40
2021/07/25 06:36:48;;;;;;;;;;;16.30;69.90;;;;;;5001498;28;95803;-40
2021/07/25 06:39:19;;;;;;;;;;;16.30;69.90;;;;;;5001843;28;94916;-39
2021/07/25 06:41:50;;;;;;;;;;;16.30;70.00;;;;;;4984168;28;95419;-38
2021/07/25 06:44:22;;;;;;;;;;;16.30;70.00;;;;;;4999889;28;98169;-39
2021/07/25 06:46:56;;;;;;;;;;;16.30;70.00;;;;;;4980895;28;95447;-39
2021/07/25 06:49:28;;;;;;;;;;;16.20;70.10;;;;;;5001472;28;94977;-47
2021/07/25 06:52:03;;;;;;;;;;;16.20;69.80;;;;;;5002521;28;95310;-46
2021/07/25 06:54:35;;;;;;;;;;;16.20;70.10;;;;;;5001829;28;95778;-46
2021/07/25 06:57:07;;;;;;;;;;;16.20;70.00;;;;;;5001948;28;95396;-46
2021/07/25 06:59:38;;;;;;;;;;;16.20;69.90;;;;;;5001921;28;95059;-47
2021/07/25 07:02:10;;;;;;;;;;;16.10;69.80;;;;;;4999459;28;96904;-47
2021/07/25 07:04:43;;;;;;;;;;;16.10;69.80;;;;;;5001150;28;96145;-47
2021/07/25 07:07:13;;;;;;;;;;;16.10;69.10;;;;;;5001443;28;95163;-47
2021/07/25 07:09:43;;;;;;;;;;;16.10;69.10;;;;;;5000371;28;94974;-47
2021/07/25 07:12:14;;;;;;;;;;;16.10;69.40;;;;;;5001931;28;95177;-45
2021/07/25 07:14:45;;;;;;;;;;;16.10;70.00;;;;;;5000945;28;96031;-47
2021/07/25 07:17:17;;;;;;;;;;;16.00;70.10;;;;;;4997142;28;95258;-48
2021/07/25 07:19:51;;;;;;;;;;;16.10;70.30;;;;;;4983774;28;95045;-47
2021/07/25 07:22:25;;;;;;;;;;;16.00;70.50;;;;;;5001556;28;95154;-47
2021/07/25 07:24:57;;;;;;;;;;;16.10;70.10;;;;;;4983345;28;96446;-47
2021/07/25 07:27:29;;;;;;;;;;;16.10;70.30;;;;;;5000781;28;95349;-47
2021/07/25 07:30:02;;;;;;;;;;;16.10;70.40;;;;;;5001067;28;94846;-41
2021/07/25 07:32:34;;;;;;;;;;;16.10;70.90;;;;;;5000049;28;95067;-42
2021/07/25 07:35:06;;;;;;;;;;;16.10;71.20;;;;;;4999973;28;95813;-44
2021/07/25 07:37:37;;;;;;;;;;;16.10;71.30;;;;;;5000350;28;95801;-43
2021/07/25 07:40:09;;;;;;;;;;;16.10;71.70;;;;;;5000904;28;94952;-42
2021/07/25 07:42:40;;;;;;;;;;;16.10;71.70;;;;;;5000966;28;95194;-46
2021/07/25 07:45:11;;;;;;;;;;;16.10;71.60;;;;;;5000200;28;95069;-41
2021/07/25 07:47:43;;;;;;;;;;;16.20;71.90;;;;;;4997053;28;95321;-43
2021/07/25 07:50:16;;;;;;;;;;;16.20;72.10;;;;;;4999807;28;95202;-42
2021/07/25 07:52:47;;;;;;;;;;;16.30;72.10;;;;;;4967942;28;95298;-43
2021/07/25 07:55:18;;;;;;;;;;;16.20;72.60;;;;;;5001227;28;96396;-43
2021/07/25 07:57:51;;;;;;;;;;;16.20;71.90;;;;;;5001359;28;96003;-43
2021/07/25 08:00:22;;;;;;;;;;;16.30;72.00;;;;;;5000696;28;94986;-44
2021/07/25 08:02:55;;;;;;;;;;;16.30;72.10;;;;;;4999359;28;95469;-45
2021/07/25 08:05:26;;;;;;;;;;;16.30;72.00;;;;;;5000509;28;95006;-45
2021/07/25 08:07:57;;;;;;;;;;;16.30;72.10;;;;;;5000424;28;95781;-44
2021/07/25 08:10:28;;;;;;;;;;;16.30;72.00;;;;;;4982814;28;95001;-45
2021/07/25 08:12:59;;;;;;;;;;;16.30;71.90;;;;;;4999105;28;95346;-45
2021/07/25 08:15:33;;;;;;;;;;;16.30;72.20;;;;;;4999350;28;95975;-46
2021/07/25 08:18:05;;;;;;;;;;;16.30;72.10;;;;;;5014362;28;102275;-48
2021/07/25 08:20:35;;;;;;;;;;;16.30;72.10;;;;;;5000132;28;94995;-45
2021/07/25 08:23:06;;;;;;;;;;;16.30;72.10;;;;;;5000632;28;95165;-44
2021/07/25 08:25:41;;;;;;;;;;;16.30;72.20;;;;;;4999572;28;96588;-45
2021/07/25 08:28:13;;;;;;;;;;;16.30;72.40;;;;;;4999957;28;95734;-46
2021/07/25 08:30:44;;;;;;;;;;;16.30;72.50;;;;;;4998231;28;94968;-46
2021/07/25 08:33:15;;;;;;;;;;;16.30;72.60;;;;;;5000168;28;95173;-45
2021/07/25 08:35:47;;;;;;;;;;;16.30;72.60;;;;;;4999278;28;96059;-46
2021/07/25 08:38:18;;;;;;;;;;;16.30;72.70;;;;;;4998654;28;95376;-46
2021/07/25 08:40:58;;;;;;;;;;;16.30;72.60;;;;;;4999849;28;94956;-46
2021/07/25 08:43:35;;;;;;;;;;;16.30;72.70;;;;;;5000605;28;95202;-45
2021/07/25 08:46:12;;;;;;;;;;;16.30;72.40;;;;;;4997789;28;95785;-48
2021/07/25 08:48:45;;;;;;;;;;;16.30;72.60;;;;;;4998668;28;95821;-47
2021/07/25 08:51:20;;;;;;;;;;;16.30;72.70;;;;;;5001013;28;94936;-45
2021/07/25 08:54:03;;;;;;;;;;;16.30;72.80;;;;;;5000983;28;95299;-45
2021/07/25 08:56:36;;;;;;;;;;;16.20;72.90;;;;;;5015205;28;98176;-45
2021/07/25 08:59:08;;;;;;;;;;;16.20;73.00;;;;;;4999997;28;95589;-46
2021/07/25 09:01:40;;;;;;;;;;;16.30;73.10;;;;;;4997684;28;95437;-46
2021/07/25 09:04:12;;;;;;;;;;;16.30;73.30;;;;;;5000368;28;95003;-46
2021/07/25 09:06:48;;;;;;;;;;;16.20;73.30;;;;;;4999720;28;95817;-48
2021/07/25 09:09:19;;;;;;;;;;;16.30;73.50;;;;;;4999009;28;95013;-46
2021/07/25 09:11:50;;;;;;;;;;;16.30;73.60;;;;;;4998761;28;95042;-47
2021/07/25 09:14:22;;;;;;;;;;;16.30;73.80;;;;;;4999593;28;95281;-46
2021/07/25 09:16:53;;;;;;;;;;;16.30;73.60;;;;;;4997053;28;96550;-49
2021/07/25 09:19:24;;;;;;;;;;;16.30;73.70;;;;;;4999033;28;95194;-46
2021/07/25 09:21:55;;;;;;;;;;;16.30;73.60;;;;;;4980874;28;95017;-47
2021/07/25 09:24:31;;;;;;;;;;;16.30;73.80;;;;;;4998393;28;95284;-45
2021/07/25 09:27:04;;;;;;;;;;;16.30;73.90;;;;;;4998924;28;96064;-45
2021/07/25 09:29:37;;;;;;;;;;;16.30;73.90;;;;;;4998903;28;95181;-47
2021/07/25 09:32:19;;;;;;;;;;;16.30;73.90;;;;;;4997989;28;95408;-46
2021/07/25 09:34:50;;;;;;;;;;;16.30;73.90;;;;;;5014692;28;95248;-47
2021/07/25 09:37:23;;;;;;;;;;;16.30;73.90;;;;;;4997527;28;95263;-45
2021/07/25 09:39:55;;;;;;;;;;;16.20;73.80;;;;;;4997658;28;95785;-45
2021/07/25 09:42:30;;;;;;;;;;;16.30;73.80;;;;;;4999328;28;94949;-48
2021/07/25 09:45:02;;;;;;;;;;;16.30;73.70;;;;;;4999432;28;95178;-47
2021/07/25 09:47:42;;;;;;;;;;;16.30;73.90;;;;;;4996714;28;95363;-47
2021/07/25 09:50:14;;;;;;;;;;;16.30;74.00;;;;;;4998985;28;95298;-46
2021/07/25 09:52:44;;;;;;;;;;;16.20;73.80;;;;;;4999744;28;95075;-49
2021/07/25 09:55:15;;;;;;;;;;;16.30;73.80;;;;;;4999760;28;95297;-46
2021/07/25 09:57:54;;;;;;;;;;;16.30;73.90;;;;;;4999793;28;95312;-44
2021/07/25 10:00:37;;;;;;;;;;;16.20;73.90;;;;;;5000951;28;95246;-44
2021/07/25 10:03:21;;;;;;;;;;;16.20;74.10;;;;;;5002404;28;95036;-45
2021/07/25 10:05:53;;;;;;;;;;;16.20;74.10;;;;;;5003327;28;94940;-47
2021/07/25 10:08:23;;;;;;;;;;;16.20;74.10;;;;;;5002476;28;95965;-46
2021/07/25 10:10:55;;;;;;;;;;;16.20;74.10;;;;;;5002742;28;95697;-47
2021/07/25 10:13:26;;;;;;;;;;;16.20;74.10;;;;;;5002370;28;94919;-45
2021/07/25 10:16:01;;;;;;;;;;;16.20;74.00;;;;;;5000821;28;95150;-45
2021/07/25 10:18:37;;;;;;;;;;;16.20;74.10;;;;;;5001891;28;96432;-44
2021/07/25 10:21:08;;;;;;;;;;;16.20;74.20;;;;;;5001720;28;95779;-43
2021/07/25 10:23:43;;;;;;;;;;;16.20;74.20;;;;;;5000802;28;94952;-46
2021/07/25 10:26:15;;;;;;;;;;;16.10;74.10;;;;;;5002438;28;95169;-45
2021/07/25 10:28:46;;;;;;;;;;;16.10;74.10;;;;;;5001693;28;95797;-46
2021/07/25 10:31:19;;;;;;;;;;;16.10;74.10;;;;;;5014380;28;98356;-45
2021/07/25 10:33:54;;;;;;;;;;;16.10;74.00;;;;;;5002107;28;94961;-45
2021/07/25 10:36:26;;;;;;;;;;;16.10;73.90;;;;;;5002278;28;95194;-45
2021/07/25 10:38:56;;;;;;;;;;;16.10;73.90;;;;;;5001528;28;95825;-46
2021/07/25 10:41:28;;;;;;;;;;;16.10;74.00;;;;;;5001430;28;95232;-46
2021/07/25 10:44:01;;;;;;;;;;;16.10;73.90;;;;;;5000115;28;95100;-47
2021/07/25 10:46:33;;;;;;;;;;;16.00;74.40;;;;;;4999619;28;95464;-47
2021/07/25 10:49:11;;;;;;;;;;;16.00;74.20;;;;;;5015547;28;96032;-50
2021/07/25 10:52:00;;;;;;;;;;;15.90;74.30;;;;;;5002048;28;95240;-47
2021/07/25 10:54:32;;;;;;;;;;;15.90;74.30;;;;;;5002688;28;94914;-46
2021/07/25 10:57:07;;;;;;;;;;;15.80;74.20;;;;;;5003247;28;95144;-48
2021/07/25 10:59:40;;;;;;;;;;;15.80;74.40;;;;;;5002259;28;96360;-47
2021/07/25 11:02:13;;;;;;;;;;;15.80;74.40;;;;;;4999861;28;96305;-46
2021/07/25 11:04:51;;;;;;;;;;;15.70;74.30;;;;;;5001810;28;94960;-48
2021/07/25 11:07:24;;;;;;;;;;;15.70;74.40;;;;;;5002145;28;95159;-49
2021/07/25 11:09:59;;;;;;;;;;;15.70;74.40;;;;;;4999350;28;95968;-48
2021/07/25 11:12:48;;;;;;;;;;;15.70;74.40;;;;;;5000970;28;95367;-46
2021/07/25 11:15:35;;;;;;;;;;;15.70;74.30;;;;;;5001077;28;94943;-47
2021/07/25 11:18:06;;;;;;;;;;;15.60;75.00;;;;;;5001133;28;95430;-48
2021/07/25 11:20:51;;;;;;;;;;;15.60;74.40;;;;;;5000866;28;95812;-46
2021/07/25 11:23:22;;;;;;;;;;;15.60;74.40;;;;;;5000907;28;95211;-46
2021/07/25 11:25:55;;;;;;;;;;;15.60;74.50;;;;;;5001201;28;94969;-48
2021/07/25 11:28:40;;;;;;;;;;;15.60;74.50;;;;;;5001500;28;95182;-46
2021/07/25 11:31:11;;;;;;;;;;;15.60;74.50;;;;;;4999035;28;96396;-46
2021/07/25 11:33:45;;;;;;;;;;;15.50;74.40;;;;;;5000357;28;95335;-46
2021/07/25 11:36:17;;;;;;;;;;;15.50;74.40;;;;;;5000839;28;94928;-46
2021/07/25 11:38:53;;;;;;;;;;;15.50;74.40;;;;;;5001271;28;95190;-47
2021/07/25 11:41:29;;;;;;;;;;;15.50;74.40;;;;;;5000273;28;95006;-46
2021/07/25 11:44:02;;;;;;;;;;;15.50;74.40;;;;;;5000080;28;95882;-46
2021/07/25 11:46:37;;;;;;;;;;;15.50;74.40;;;;;;4998971;28;95234;-47
2021/07/25 11:49:10;;;;;;;;;;;15.50;74.40;;;;;;5001247;28;95182;-47
2021/07/25 11:51:55;;;;;;;;;;;15.50;74.20;;;;;;5001673;28;96027;-48
2021/07/25 11:54:26;;;;;;;;;;;15.40;74.20;;;;;;5000400;28;95195;-47
2021/07/25 11:56:58;;;;;;;;;;;15.40;74.20;;;;;;5001191;28;95020;-46
2021/07/25 11:59:33;;;;;;;;;;;15.40;74.20;;;;;;5001776;28;95171;-46
2021/07/25 12:02:09;;;;;;;;;;;15.40;74.30;;;;;;4998140;28;96715;-48
2021/07/25 12:04:42;;;;;;;;;;;15.40;74.20;;;;;;5015685;28;95207;-47
2021/07/25 12:07:19;;;;;;;;;;;15.40;74.20;;;;;;4999820;28;95080;-46
2021/07/25 12:09:52;;;;;;;;;;;15.40;74.20;;;;;;5001370;28;95154;-46
2021/07/25 12:12:28;;;;;;;;;;;15.30;74.10;;;;;;5000636;28;96369;-47
2021/07/25 12:15:00;;;;;;;;;;;15.30;74.10;;;;;;4981262;28;95760;-46
2021/07/25 12:17:44;;;;;;;;;;;15.30;74.10;;;;;;4980738;28;96066;-46
2021/07/25 12:20:18;;;;;;;;;;;15.30;74.00;;;;;;4978443;28;96514;-46
2021/07/25 12:23:00;;;;;;;;;;;15.30;74.00;;;;;;4977855;28;98858;-46
2021/07/25 12:25:32;;;;;;;;;;;15.30;74.00;;;;;;4976416;28;96630;-48
2021/07/25 12:28:07;;;;;;;;;;;15.30;74.00;;;;;;4976657;28;95760;-46
2021/07/25 12:30:39;;;;;;;;;;;15.30;74.00;;;;;;4975926;28;96547;-46
2021/07/25 12:33:10;;;;;;;;;;;15.30;74.00;;;;;;4983106;28;96042;-48
2021/07/25 12:35:41;;;;;;;;;;;15.30;74.00;;;;;;4976983;28;96110;-48
2021/07/25 12:38:12;;;;;;;;;;;15.20;73.90;;;;;;4986764;28;95904;-46
2021/07/25 12:40:49;;;;;;;;;;;15.20;73.90;;;;;;4980793;28;95739;-46
2021/07/25 12:43:20;;;;;;;;;;;15.20;73.90;;;;;;4989468;28;96555;-46
2021/07/25 12:45:52;;;;;;;;;;;15.20;73.90;;;;;;4984399;28;95826;-49
2021/07/25 12:48:24;;;;;;;;;;;15.20;73.90;;;;;;4973070;28;95362;-47
2021/07/25 12:53:49;;;;;;;;;;;15.20;73.90;;;;;;4990478;28;96643;-49
2021/07/25 12:56:23;;;;;;;;;;;15.20;73.80;;;;;;4996587;28;95572;-50
2021/07/25 12:58:57;;;;;;;;;;;15.20;73.80;;;;;;4988650;28;95685;-46
2021/07/25 13:04:06;;;;;;;;;;;15.20;73.80;;;;;;4982894;28;96689;-46
2021/07/25 13:06:43;;;;;;;;;;;15.20;73.80;;;;;;4984755;28;95854;-46
2021/07/25 13:09:13;;;;;;;;;;;15.10;73.80;;;;;;4985726;28;95688;-47
2021/07/25 13:11:47;;;;;;;;;;;15.10;73.80;;;;;;4992403;28;96028;-47
2021/07/25 13:14:28;;;;;;;;;;;15.10;73.80;;;;;;4988261;28;96117;-47
2021/07/25 13:16:58;;;;;;;;;;;15.10;73.80;;;;;;4979749;28;97451;-48
2021/07/25 13:19:28;;;;;;;;;;;15.10;73.80;;;;;;4983650;28;95372;-48
2021/07/25 13:21:59;;;;;;;;;;;15.10;73.70;;;;;;4983579;28;97453;-48
2021/07/25 13:24:31;;;;;;;;;;;15.10;73.80;;;;;;4986477;28;96934;-46
2021/07/25 13:27:03;;;;;;;;;;;15.10;73.70;;;;;;4986535;28;96074;-46
2021/07/25 13:29:35;;;;;;;;;;;15.10;73.80;;;;;;4989297;28;95780;-48
2021/07/25 13:32:05;;;;;;;;;;;15.10;73.80;;;;;;4986815;28;95760;-46
2021/07/25 13:34:35;;;;;;;;;;;15.00;73.80;;;;;;4983987;28;96163;-48
2021/07/25 13:37:06;;;;;;;;;;;15.10;73.70;;;;;;4994074;28;95992;-47
2021/07/25 13:39:36;;;;;;;;;;;15.00;73.60;;;;;;4991455;28;95923;-50
2021/07/25 13:42:06;;;;;;;;;;;15.00;73.60;;;;;;4988705;28;95987;-49
2021/07/25 13:44:36;;;;;;;;;;;15.00;73.60;;;;;;4992307;28;95833;-48
2021/07/25 13:47:07;;;;;;;;;;;15.00;73.60;;;;;;4980592;28;102701;-48
2021/07/25 13:49:38;;;;;;;;;;;15.00;73.60;;;;;;4977718;28;100306;-48
2021/07/25 13:52:08;;;;;;;;;;;15.00;73.60;;;;;;4975510;28;96414;-50
2021/07/25 13:54:38;;;;;;;;;;;15.00;73.60;;;;;;4983325;28;95786;-47
2021/07/25 13:57:11;;;;;;;;;;;15.00;73.60;;;;;;4988415;28;96232;-48
2021/07/25 13:59:42;;;;;;;;;;;15.00;74.30;;;;;;4989532;28;96140;-51
2021/07/25 14:02:12;;;;;;;;;;;14.90;76.60;;;;;;4985333;28;95799;-47
2021/07/25 14:04:44;;;;;;;;;;;14.80;76.80;;;;;;4985680;28;96646;-48
2021/07/25 14:07:17;;;;;;;;;;;14.70;76.90;;;;;;4982181;28;96060;-48
2021/07/25 14:09:47;;;;;;;;;;;14.60;76.90;;;;;;4980992;28;95713;-50
2021/07/25 14:12:17;;;;;;;;;;;14.60;77.00;;;;;;4984115;28;95852;-48
2021/07/25 14:14:48;;;;;;;;;;;14.50;77.00;;;;;;4984137;28;96749;-48
2021/07/25 14:17:19;;;;;;;;;;;14.50;77.10;;;;;;4980082;28;98529;-48
2021/07/25 14:19:51;;;;;;;;;;;14.50;77.20;;;;;;4979221;28;96919;-49
2021/07/25 14:22:22;;;;;;;;;;;14.40;77.30;;;;;;4990982;28;95793;-48
2021/07/25 14:24:53;;;;;;;;;;;14.40;77.30;;;;;;4986438;28;96008;-46
2021/07/25 14:27:24;;;;;;;;;;;14.40;77.30;;;;;;4980241;28;96175;-47
2021/07/25 14:29:54;;;;;;;;;;;14.30;77.40;;;;;;4991823;28;95915;-49
2021/07/25 14:32:28;;;;;;;;;;;14.30;77.40;;;;;;4986118;28;95960;-48
2021/07/25 14:34:59;;;;;;;;;;;14.30;77.20;;;;;;4982660;28;96335;-48
2021/07/25 14:37:30;;;;;;;;;;;14.30;77.00;;;;;;4985220;28;98051;-48
2021/07/25 14:40:01;;;;;;;;;;;14.40;77.10;;;;;;4975552;28;95840;-47
2021/07/25 14:42:32;;;;;;;;;;;14.50;77.10;;;;;;4993345;28;95716;-46
2021/07/25 14:45:06;;;;;;;;;;;14.50;77.00;;;;;;4977953;28;96756;-48
2021/07/25 14:47:36;;;;;;;;;;;14.60;77.00;;;;;;4980647;28;96292;-49
2021/07/25 14:50:08;;;;;;;;;;;14.60;77.10;;;;;;4978551;28;102813;-47
2021/07/25 14:52:38;;;;;;;;;;;14.60;77.00;;;;;;4976535;28;95959;-47
2021/07/25 14:55:09;;;;;;;;;;;14.60;77.20;;;;;;4986701;28;95802;-47